Time;durP1;ratioP1;P1;durP2;ratioP2;P2;SDS_P1;SDS_P2;PMS_P1;PMS_P2;Temp;Humidity;BMP_temperature;BMP_pressure;BME280_temperature;BME280_humidity;BME280_pressure;Samples;Min_cycle;Max_cycle;Signal;HPM_P1;HPM_P2
2023/06/05 00:03:27;;;;;;;0.90;0.90;;;;;;;19.22;57.63;96668.88;10494409;28;20033;-34
2023/06/05 00:08:27;;;;;;;1.38;1.08;;;;;;;19.26;57.89;96664.63;10491539;28;20037;-33
2023/06/05 00:13:27;;;;;;;0.57;0.57;;;;;;;19.45;58.18;96666.25;10494147;28;20036;-33
2023/06/05 00:18:28;;;;;;;0.70;0.70;;;;;;;19.58;57.96;96666.16;10488556;28;20402;-33
2023/06/05 00:23:28;;;;;;;0.77;0.65;;;;;;;19.45;58.03;96658.63;10493172;28;20298;-33
2023/06/05 00:28:29;;;;;;;0.73;0.67;;;;;;;19.35;57.83;96654.44;10487759;28;20041;-32
2023/06/05 00:33:30;;;;;;;0.53;0.53;;;;;;;19.31;57.56;96657.84;10473114;28;20037;-36
2023/06/05 00:38:31;;;;;;;0.88;0.80;;;;;;;19.28;57.44;96652.78;10475038;28;20285;-33
2023/06/05 00:43:31;;;;;;;0.53;0.53;;;;;;;19.27;57.53;96649.38;10487539;28;20506;-33
2023/06/05 00:48:33;;;;;;;0.70;0.70;;;;;;;19.25;57.40;96647.72;10474439;28;20059;-33
2023/06/05 00:53:35;;;;;;;0.55;0.55;;;;;;;19.21;57.36;96640.97;10469143;28;20315;-33
2023/06/05 00:58:36;;;;;;;0.77;0.70;;;;;;;19.23;57.30;96649.41;10487005;28;20569;-32
2023/06/05 01:03:39;;;;;;;0.80;0.80;;;;;;;19.24;57.24;96646.03;10474038;28;20036;-32
2023/06/05 01:08:41;;;;;;;0.77;0.77;;;;;;;19.33;59.58;96651.06;10472283;28;20037;-32
2023/06/05 01:14:00;;;;;;;0.80;0.80;;;;;;;19.53;57.93;96636.56;10470162;28;20039;-33
2023/06/05 01:19:01;;;;;;;0.68;0.68;;;;;;;19.52;57.84;96642.50;10481845;28;20020;-32
2023/06/05 01:24:02;;;;;;;1.17;0.77;;;;;;;19.38;57.66;96641.72;10490507;28;20170;-33
2023/06/05 01:29:06;;;;;;;0.88;0.88;;;;;;;19.32;57.65;96641.75;10472558;28;20119;-33
2023/06/05 01:34:12;;;;;;;0.80;0.80;;;;;;;19.25;57.70;96632.50;10493779;28;20031;-32
2023/06/05 01:39:14;;;;;;;0.88;0.80;;;;;;;19.28;57.46;96640.09;10489704;28;20033;-32
2023/06/05 01:44:15;;;;;;;0.80;0.80;;;;;;;19.25;57.27;96642.66;10474164;28;20032;-32
2023/06/05 01:49:16;;;;;;;0.80;0.80;;;;;;;19.24;57.11;96635.88;10485083;28;20028;-33
2023/06/05 01:54:18;;;;;;;1.10;1.00;;;;;;;19.25;57.17;96637.56;10485307;28;20028;-32
2023/06/05 01:59:19;;;;;;;0.70;0.70;;;;;;;19.24;57.13;96636.72;10504456;28;20549;-32
2023/06/05 02:04:20;;;;;;;1.02;0.80;;;;;;;19.24;57.74;96631.63;10478608;28;20037;-33
2023/06/05 02:09:20;;;;;;;0.60;0.60;;;;;;;19.44;58.23;96644.25;10493974;28;20054;-33
2023/06/05 02:14:22;;;;;;;0.50;0.50;;;;;;;19.56;57.67;96642.50;10480029;28;20098;-33
2023/06/05 02:19:23;;;;;;;0.82;0.80;;;;;;;19.43;57.45;96640.84;10485957;28;20036;-32
2023/06/05 02:24:26;;;;;;;0.70;0.70;;;;;;;19.36;57.65;96635.81;10485261;28;20037;-33
2023/06/05 02:29:27;;;;;;;1.10;1.00;;;;;;;19.31;57.25;96640.06;10501120;28;20040;-33
2023/06/05 02:34:28;;;;;;;0.60;0.50;;;;;;;19.29;57.35;96641.78;10485901;28;20025;-32
2023/06/05 02:39:30;;;;;;;0.70;0.70;;;;;;;19.28;57.42;96628.25;10502231;28;20059;-33
2023/06/05 02:44:32;;;;;;;1.15;1.05;;;;;;;19.26;57.37;96627.41;10485643;28;20036;-33
2023/06/05 02:49:33;;;;;;;0.70;0.70;;;;;;;19.26;57.60;96629.94;10510428;28;20567;-33
2023/06/05 02:54:34;;;;;;;0.80;0.80;;;;;;;19.26;57.49;96629.09;10493927;28;20029;-33
2023/06/05 02:59:39;;;;;;;1.10;1.00;;;;;;;19.24;57.03;96635.88;10471616;28;20095;-32
2023/06/05 03:04:42;;;;;;;1.10;1.00;;;;;;;19.34;58.85;96627.38;10478489;28;20060;-34
2023/06/05 03:09:43;;;;;;;0.82;0.82;;;;;;;19.52;57.63;96637.44;10500590;28;20067;-32
2023/06/05 03:14:44;;;;;;;0.85;0.80;;;;;;;19.52;57.79;96632.34;10494116;28;20020;-34
2023/06/05 03:19:44;;;;;;;0.95;0.90;;;;;;;19.39;57.62;96636.66;10477868;28;20418;-33
2023/06/05 03:24:45;;;;;;;0.80;0.75;;;;;;;19.32;57.74;96634.13;10476743;28;20055;-33
2023/06/05 03:29:46;;;;;;;0.85;0.80;;;;;;;19.31;57.49;96634.97;10488784;28;20028;-32
2023/06/05 03:34:48;;;;;;;1.08;0.98;;;;;;;19.28;57.13;96647.69;10494549;28;20048;-32
2023/06/05 03:39:49;;;;;;;1.10;1.00;;;;;;;19.28;57.28;96647.69;10485272;28;20052;-32
2023/06/05 03:44:51;;;;;;;1.00;0.90;;;;;;;19.26;56.86;96644.34;10471175;28;20032;-33
2023/06/05 03:49:52;;;;;;;0.98;0.90;;;;;;;19.24;57.12;96646.03;10476502;28;20036;-34
2023/06/05 03:54:55;;;;;;;0.98;0.98;;;;;;;19.24;57.25;96641.78;10493483;28;20056;-33
2023/06/05 03:59:55;;;;;;;1.00;0.90;;;;;;;19.25;57.45;96648.56;10469630;28;20028;-32
2023/06/05 04:04:56;;;;;;;0.60;0.60;;;;;;;19.44;58.08;96652.69;10476220;28;20035;-33
2023/06/05 04:09:57;;;;;;;0.77;0.70;;;;;;;19.57;56.95;96651.78;10473599;28;20491;-33
2023/06/05 04:14:59;;;;;;;0.80;0.80;;;;;;;19.42;57.42;96649.31;10491534;28;20107;-33
2023/06/05 04:20:00;;;;;;;0.80;0.80;;;;;;;19.32;57.55;96650.22;10493649;28;20036;-32
2023/06/05 04:25:01;;;;;;;0.88;0.82;;;;;;;19.30;57.42;96651.94;10484356;28;20047;-33
2023/06/05 04:30:03;;;;;;;0.80;0.80;;;;;;;19.28;57.26;96657.84;10505562;28;20028;-32
2023/06/05 04:35:11;;;;;;;0.90;0.90;;;;;;;19.27;57.29;96654.47;10472351;28;20496;-34
2023/06/05 04:40:14;;;;;;;0.73;0.73;;;;;;;19.27;57.31;96659.53;10470039;28;20115;-32
2023/06/05 04:45:16;;;;;;;1.02;0.93;;;;;;;19.26;57.22;96662.94;10483112;28;20399;-33
2023/06/05 04:50:25;;;;;;;1.75;1.17;;;;;;;19.26;57.22;96665.47;10483637;28;20062;-33
2023/06/05 04:55:27;;;;;;;1.23;1.13;;;;;;;19.25;57.19;96668.03;10475102;28;20456;-33
2023/06/05 05:00:29;;;;;;;1.15;1.05;;;;;;;19.36;58.32;96658.66;10466924;28;20043;-32
2023/06/05 05:05:30;;;;;;;0.85;0.85;;;;;;;19.53;57.38;96665.38;10491901;28;20514;-33
2023/06/05 05:10:32;;;;;;;0.90;0.90;;;;;;;19.47;57.63;96664.53;10472669;28;20494;-33
2023/06/05 05:15:32;;;;;;;0.82;0.80;;;;;;;19.36;57.45;96667.16;10473550;28;20021;-32
2023/06/05 05:20:34;;;;;;;0.70;0.70;;;;;;;19.32;57.34;96669.66;10472073;28;20040;-33
2023/06/05 05:25:37;;;;;;;0.93;0.88;;;;;;;19.28;57.38;96662.94;10473286;28;20074;-33
2023/06/05 05:30:37;;;;;;;0.80;0.80;;;;;;;19.27;57.16;96657.00;10496787;28;20628;-32
2023/06/05 05:35:39;;;;;;;1.17;1.08;;;;;;;19.25;56.89;96663.78;10467052;28;20028;-32
2023/06/05 05:40:40;;;;;;;1.20;1.10;;;;;;;19.26;57.23;96664.63;10490808;28;20066;-33
2023/06/05 05:45:42;;;;;;;0.70;0.70;;;;;;;19.25;56.64;96663.78;10470489;28;20040;-33
2023/06/05 05:50:42;;;;;;;0.82;0.82;;;;;;;19.25;57.09;96670.56;10491092;28;20119;-32
2023/06/05 05:55:43;;;;;;;1.35;1.25;;;;;;;19.31;59.48;96670.53;10486589;28;20089;-32
2023/06/05 06:00:43;;;;;;;1.00;0.90;;;;;;;19.49;58.22;96667.94;10491391;28;20044;-32
2023/06/05 06:05:47;;;;;;;0.82;0.82;;;;;;;19.49;57.50;96667.94;10485788;28;20361;-33
2023/06/05 06:10:47;;;;;;;1.00;0.80;;;;;;;19.37;57.61;96673.03;10490694;28;20487;-32
2023/06/05 06:15:48;;;;;;;0.77;0.73;;;;;;;19.32;57.46;96669.66;10486632;28;20037;-33
2023/06/05 06:20:48;;;;;;;0.70;0.70;;;;;;;19.28;57.39;96665.47;10490585;28;20060;-32
2023/06/05 06:25:50;;;;;;;1.00;0.90;;;;;;;19.27;57.32;96676.47;10489053;28;20044;-32
2023/06/05 06:30:51;;;;;;;0.70;0.70;;;;;;;19.25;57.18;96666.31;10486404;28;20365;-32
2023/06/05 06:35:51;;;;;;;1.00;0.90;;;;;;;19.26;57.15;96674.78;10498126;28;20115;-33
2023/06/05 06:40:51;;;;;;;1.30;1.20;;;;;;;19.26;57.07;96674.78;10491075;28;20037;-33
2023/06/05 06:45:52;;;;;;;1.03;0.80;;;;;;;19.25;57.24;96684.09;10495066;28;20029;-33
2023/06/05 06:50:53;;;;;;;0.70;0.68;;;;;;;19.25;58.34;96679.00;10497681;28;20032;-33
2023/06/05 06:55:53;;;;;;;0.70;0.70;;;;;;;19.47;58.08;96674.69;10496079;28;20033;-33
2023/06/05 07:00:53;;;;;;;0.70;0.70;;;;;;;19.57;57.63;96668.72;10497449;28;20039;-34
2023/06/05 07:05:54;;;;;;;0.83;0.80;;;;;;;19.41;57.74;96673.03;10488542;28;20290;-33
2023/06/05 07:10:55;;;;;;;0.70;0.70;;;;;;;19.36;57.56;96673.91;10505542;28;20289;-32
2023/06/05 07:15:55;;;;;;;1.20;1.10;;;;;;;19.32;57.94;96669.66;10494850;28;20115;-32
2023/06/05 07:20:56;;;;;;;0.80;0.70;;;;;;;19.30;57.62;96668.84;10494708;28;20031;-33
2023/06/05 07:25:56;;;;;;;1.10;1.00;;;;;;;19.29;57.75;96664.63;10496292;28;20287;-34
2023/06/05 07:30:57;;;;;;;1.20;1.10;;;;;;;19.28;57.20;96660.41;10489125;28;20074;-33
2023/06/05 07:35:59;;;;;;;0.70;0.70;;;;;;;19.26;57.24;96664.63;10496068;28;20025;-32
2023/06/05 07:41:01;;;;;;;1.20;1.10;;;;;;;19.27;57.22;96658.72;10494236;28;20036;-32
2023/06/05 07:46:01;;;;;;;1.33;1.23;;;;;;;19.26;57.69;96664.63;10493590;28;20036;-32
2023/06/05 07:51:02;;;;;;;0.80;0.80;;;;;;;19.37;59.32;96652.72;10495449;28;20032;-33
2023/06/05 07:56:03;;;;;;;1.08;0.95;;;;;;;19.55;58.36;96657.72;10494296;28;20028;-32
2023/06/05 08:01:07;;;;;;;0.70;0.70;;;;;;;19.48;57.84;96643.38;10495551;28;20028;-32
2023/06/05 08:06:07;;;;;;;1.10;1.00;;;;;;;19.38;58.65;96646.81;10488416;28;20028;-33
2023/06/05 08:11:07;;;;;;;0.83;0.83;;;;;;;19.35;57.77;96642.56;10494272;28;20032;-33
2023/06/05 08:16:08;;;;;;;1.17;1.00;;;;;;;19.32;57.85;96640.06;10486884;28;20131;-33
2023/06/05 08:21:08;;;;;;;2.27;1.13;;;;;;;19.30;57.58;96639.25;10494389;28;20039;-33
2023/06/05 08:26:11;;;;;;;1.10;1.00;;;;;;;19.30;57.65;96638.38;10491843;28;20028;-33
2023/06/05 08:31:12;;;;;;;1.08;1.00;;;;;;;19.30;57.62;96630.75;10488273;28;20091;-33
2023/06/05 08:36:12;;;;;;;1.13;1.03;;;;;;;19.29;57.77;96627.41;10493096;28;20517;-32
2023/06/05 08:41:16;;;;;;;1.30;1.20;;;;;;;19.30;57.65;96625.69;10486288;28;20562;-33
2023/06/05 08:46:17;;;;;;;1.13;1.05;;;;;;;19.35;60.50;96624.81;10492771;28;20033;-32
2023/06/05 08:51:18;;;;;;;0.70;0.70;;;;;;;19.52;58.15;96627.28;10493513;28;20048;-33
2023/06/05 08:56:19;;;;;;;1.10;0.90;;;;;;;19.58;57.75;96617.09;10490013;28;20084;-32
2023/06/05 09:01:19;;;;;;;0.80;0.75;;;;;;;19.45;58.08;96616.31;10492604;28;20032;-33
2023/06/05 09:06:20;;;;;;;0.90;0.90;;;;;;;19.38;58.01;96619.75;10489346;28;20437;-33
2023/06/05 09:11:27;;;;;;;1.15;1.05;;;;;;;19.35;58.11;96613.81;10491712;28;20479;-32
2023/06/05 09:16:43;;;;;;;0.80;0.80;;;;;;;19.33;58.16;96615.53;10487823;28;20037;-33
2023/06/05 09:21:52;;;;;;;1.02;0.95;;;;;;;19.32;57.88;96613.81;10486807;28;20466;-33
2023/06/05 09:27:04;;;;;;;1.60;1.40;;;;;;;19.33;58.02;96615.53;10484382;28;20545;-33
2023/06/05 09:32:06;;;;;;;1.05;0.95;;;;;;;19.33;58.02;96613.00;10484412;28;20039;-33
2023/06/05 09:37:09;;;;;;;1.20;1.10;;;;;;;19.32;57.89;96614.69;10494367;28;20032;-32
2023/06/05 09:42:09;;;;;;;1.20;1.10;;;;;;;19.33;58.66;96603.66;10495199;28;20490;-33
2023/06/05 09:47:13;;;;;;;0.70;0.70;;;;;;;19.50;58.79;96595.97;10491276;28;20040;-32
2023/06/05 09:52:14;;;;;;;0.70;0.60;;;;;;;19.59;58.16;96603.53;10490419;28;20032;-33
2023/06/05 09:57:15;;;;;;;1.10;1.00;;;;;;;19.46;58.42;96601.91;10489686;28;20035;-33
2023/06/05 10:02:18;;;;;;;0.55;0.55;;;;;;;19.41;58.45;96601.13;10491084;28;20032;-32
2023/06/05 10:07:18;;;;;;;0.77;0.77;;;;;;;19.38;58.27;96593.50;10497833;28;20118;-33
2023/06/05 10:12:20;;;;;;;1.30;1.20;;;;;;;19.36;58.17;96590.97;10498936;28;20147;-33
2023/06/05 10:17:21;;;;;;;1.10;1.00;;;;;;;19.36;58.13;96592.66;10495094;28;20118;-32
2023/06/05 10:22:24;;;;;;;1.33;1.23;;;;;;;19.34;58.25;96581.69;10496258;28;20093;-33
2023/06/05 10:27:43;;;;;;;1.23;1.13;;;;;;;19.34;58.01;96581.69;10498520;28;20089;-33
2023/06/05 10:32:59;;;;;;;1.20;1.10;;;;;;;19.35;57.95;96583.38;10498149;28;20504;-33
2023/06/05 10:38:17;;;;;;;1.30;1.17;;;;;;;19.35;58.74;96575.75;10490084;28;20033;-33
2023/06/05 10:43:28;;;;;;;1.00;0.90;;;;;;;19.53;58.55;96578.16;10497713;28;20066;-33
2023/06/05 10:49:07;;;;;;;0.77;0.77;;;;;;;19.63;57.94;96574.72;10494709;28;20557;-32
2023/06/05 10:54:15;;;;;;;0.98;0.88;;;;;;;19.48;58.71;96582.44;10491952;28;20418;-32
2023/06/05 10:59:15;;;;;;;0.70;0.60;;;;;;;19.43;58.56;96581.63;10494093;28;20040;-32
2023/06/05 11:04:16;;;;;;;1.80;1.05;;;;;;;19.39;58.37;96574.88;10489400;28;20044;-34
2023/06/05 11:09:17;;;;;;;1.00;0.90;;;;;;;19.34;58.56;96579.97;10496778;28;20035;-32
2023/06/05 11:14:18;;;;;;;1.40;1.30;;;;;;;19.37;58.40;96576.56;10492750;28;20364;-33
2023/06/05 11:19:22;;;;;;;1.52;1.40;;;;;;;19.36;58.33;96579.97;10495875;28;20037;-31
2023/06/05 11:24:22;;;;;;;1.20;1.10;;;;;;;19.36;58.63;96577.44;10495044;28;20041;-33
2023/06/05 11:29:25;;;;;;;0.93;0.90;;;;;;;19.35;58.17;96568.97;10496193;28;20028;-33
2023/06/05 11:34:27;;;;;;;1.38;1.15;;;;;;;19.35;58.31;96574.03;10493147;28;20037;-32
2023/06/05 11:39:42;;;;;;;0.90;0.70;;;;;;;19.51;58.94;96568.00;10495329;28;20504;-33
2023/06/05 11:44:43;;;;;;;0.68;0.68;;;;;;;19.63;57.91;96567.09;10488374;28;20036;-33
2023/06/05 11:49:43;;;;;;;0.60;0.60;;;;;;;19.50;58.75;96555.34;10490494;28;20436;-33
2023/06/05 11:54:52;;;;;;;0.80;0.80;;;;;;;19.44;58.69;96563.00;10495530;28;20271;-33
2023/06/05 11:59:53;;;;;;;0.60;0.60;;;;;;;19.36;58.72;96544.44;10485356;28;20374;-31
2023/06/05 12:04:53;;;;;;;0.87;0.70;;;;;;;19.36;58.55;96546.97;10495586;28;20033;-34
2023/06/05 12:09:55;;;;;;;1.15;1.10;;;;;;;19.37;58.62;96557.13;10492861;28;20290;-33
2023/06/05 12:14:56;;;;;;;0.88;0.88;;;;;;;19.37;58.30;96548.66;10494262;28;20032;-33
2023/06/05 12:19:57;;;;;;;1.20;1.10;;;;;;;19.36;58.62;96535.13;10491049;28;20046;-32
2023/06/05 12:25:15;;;;;;;1.42;1.33;;;;;;;19.34;58.22;96530.91;10502041;28;20402;-32
2023/06/05 12:30:16;;;;;;;1.05;0.95;;;;;;;19.35;58.37;96530.06;10487655;28;20044;-32
2023/06/05 12:35:23;;;;;;;0.63;0.63;;;;;;;19.50;60.01;96532.50;10492288;28;20031;-33
2023/06/05 12:40:23;;;;;;;0.85;0.77;;;;;;;19.65;58.93;96527.28;10493746;28;20033;-32
2023/06/05 12:45:24;;;;;;;0.93;0.90;;;;;;;19.57;58.86;96524.81;10485766;28;20453;-32
2023/06/05 12:50:26;;;;;;;0.50;0.50;;;;;;;19.48;58.81;96519.81;10492803;28;20504;-32
2023/06/05 12:55:27;;;;;;;0.75;0.75;;;;;;;19.43;58.89;96525.78;10489486;28;20051;-33
2023/06/05 13:00:27;;;;;;;0.75;0.70;;;;;;;19.41;58.57;96512.25;10492418;28;20039;-33
2023/06/05 13:05:33;;;;;;;0.80;0.80;;;;;;;19.40;58.51;96513.94;10491499;28;20499;-33
2023/06/05 13:10:33;;;;;;;1.03;0.90;;;;;;;19.40;58.42;96515.63;10487669;28;20040;-31
2023/06/05 13:15:34;;;;;;;1.07;0.97;;;;;;;19.39;58.49;96508.84;10484923;28;20032;-33
2023/06/05 13:20:36;;;;;;;1.20;1.10;;;;;;;19.38;58.61;96509.72;10491230;28;20035;-32
2023/06/05 13:25:39;;;;;;;1.00;0.93;;;;;;;19.37;58.46;96497.88;10492167;28;20079;-34
2023/06/05 13:30:40;;;;;;;1.10;1.00;;;;;;;19.44;61.00;96497.00;10484454;28;20419;-32
2023/06/05 13:35:40;;;;;;;0.70;0.70;;;;;;;19.60;59.00;96494.31;10491487;28;20044;-32
2023/06/05 13:40:42;;;;;;;0.98;0.82;;;;;;;19.60;58.47;96478.25;10489707;28;20093;-34
2023/06/05 13:45:42;;;;;;;0.85;0.75;;;;;;;19.52;58.91;96482.53;10491772;28;20032;-33
2023/06/05 13:50:43;;;;;;;0.70;0.70;;;;;;;19.47;58.94;96481.72;10488397;28;20032;-32
2023/06/05 13:55:43;;;;;;;1.20;1.10;;;;;;;19.43;58.76;96469.91;10491272;28;20032;-32
2023/06/05 14:00:44;;;;;;;0.80;0.80;;;;;;;19.43;58.92;96469.91;10484281;28;20496;-33
2023/06/05 14:05:44;;;;;;;1.05;0.95;;;;;;;19.42;58.93;96463.97;10491168;28;20377;-33
2023/06/05 14:10:45;;;;;;;1.03;0.93;;;;;;;19.39;58.88;96460.63;10482418;28;20486;-33
2023/06/05 14:15:45;;;;;;;1.02;0.93;;;;;;;19.41;58.57;96458.94;10489427;28;20032;-32
2023/06/05 14:20:46;;;;;;;1.20;1.10;;;;;;;19.40;58.66;96460.63;10490803;28;20437;-32
2023/06/05 14:25:46;;;;;;;1.23;1.13;;;;;;;19.40;59.32;96465.69;10489435;28;20135;-32
2023/06/05 14:30:46;;;;;;;0.80;0.80;;;;;;;19.57;59.97;96457.94;10490462;28;20040;-32
2023/06/05 14:35:49;;;;;;;0.77;0.77;;;;;;;19.66;58.41;96443.47;10487443;28;20029;-33
2023/06/05 14:40:51;;;;;;;0.70;0.70;;;;;;;19.58;59.37;96449.50;10490241;28;20043;-33
2023/06/05 14:45:51;;;;;;;0.93;0.90;;;;;;;19.50;59.05;96441.09;10486236;28;20025;-33
2023/06/05 14:50:52;;;;;;;0.98;0.90;;;;;;;19.46;59.05;96444.50;10490600;28;20082;-33
2023/06/05 14:55:53;;;;;;;1.55;1.35;;;;;;;19.43;58.99;96442.00;10492450;28;20410;-33
2023/06/05 15:00:53;;;;;;;1.20;1.10;;;;;;;19.43;58.72;96447.06;10497069;28;20021;-33
2023/06/05 15:05:53;;;;;;;1.20;1.10;;;;;;;19.42;58.48;96463.16;10496053;28;20035;-32
2023/06/05 15:10:54;;;;;;;1.20;0.75;;;;;;;19.37;58.40;96470.81;10498504;28;20024;-33
2023/06/05 15:15:54;;;;;;;1.07;0.97;;;;;;;19.36;58.32;96469.13;10489448;28;20043;-33
2023/06/05 15:20:55;;;;;;;0.95;0.95;;;;;;;19.35;58.27;96466.59;10495338;28;20028;-32
2023/06/05 15:25:55;;;;;;;0.80;0.70;;;;;;;19.46;59.32;96463.13;10496638;28;20039;-33
2023/06/05 15:30:55;;;;;;;1.87;1.03;;;;;;;19.63;58.78;96457.88;10496276;28;20021;-32
2023/06/05 15:35:56;;;;;;;0.40;0.40;;;;;;;19.56;58.89;96456.25;10497123;28;20020;-42
2023/06/05 15:40:56;;;;;;;0.63;0.63;;;;;;;19.48;58.84;96465.63;10486411;28;20036;-32
2023/06/05 15:45:56;;;;;;;0.60;0.60;;;;;;;19.43;58.74;96464.84;10497051;28;20039;-33
2023/06/05 15:50:59;;;;;;;0.97;0.87;;;;;;;19.40;58.55;96475.84;10493690;28;20035;-33
2023/06/05 15:56:01;;;;;;;1.02;0.95;;;;;;;19.38;58.07;96461.47;10495323;28;20028;-33
2023/06/05 16:01:02;;;;;;;1.00;0.90;;;;;;;19.37;58.28;96436.94;10494008;28;20071;-33
2023/06/05 16:06:03;;;;;;;0.98;0.88;;;;;;;19.36;58.11;96435.28;10493498;28;20124;-33
2023/06/05 16:11:04;;;;;;;0.80;0.73;;;;;;;19.36;58.05;96438.66;10494341;28;20402;-33
2023/06/05 16:16:05;;;;;;;0.63;0.63;;;;;;;19.33;58.04;96448.00;10480046;28;20329;-34
2023/06/05 16:21:05;;;;;;;0.70;0.70;;;;;;;19.38;60.20;96462.34;10494296;28;20028;-33
2023/06/05 16:26:05;;;;;;;0.50;0.50;;;;;;;19.50;58.80;96447.00;10492603;28;20032;-32
2023/06/05 16:31:08;;;;;;;0.77;0.57;;;;;;;19.65;57.99;96463.78;10493635;28;20517;-33
2023/06/05 16:36:10;;;;;;;0.63;0.63;;;;;;;19.51;58.50;96463.09;10489131;28;20025;-33
2023/06/05 16:41:10;;;;;;;0.70;0.70;;;;;;;19.44;58.48;96471.59;10492603;28;20040;-33
2023/06/05 16:46:10;;;;;;;0.70;0.70;;;;;;;19.41;58.24;96469.09;10485463;28;20036;-32
2023/06/05 16:51:11;;;;;;;0.50;0.50;;;;;;;19.39;58.29;96488.56;10485962;28;20029;-32
2023/06/05 16:56:11;;;;;;;1.07;0.97;;;;;;;19.37;58.25;96491.13;10492771;28;20094;-33
2023/06/05 17:01:12;;;;;;;1.03;0.93;;;;;;;19.36;58.08;96498.75;10492137;28;20044;-32
2023/06/05 17:06:12;;;;;;;1.67;1.00;;;;;;;19.36;58.03;96491.13;10492096;28;20032;-32
2023/06/05 17:11:13;;;;;;;1.00;0.90;;;;;;;19.35;58.07;96490.25;10487844;28;20040;-32
2023/06/05 17:16:13;;;;;;;1.35;0.90;;;;;;;19.35;57.93;96481.81;10483601;28;20286;-34
2023/06/05 17:21:14;;;;;;;1.10;0.80;;;;;;;19.50;58.85;96482.53;10492065;28;20055;-32
2023/06/05 17:26:15;;;;;;;0.70;0.70;;;;;;;19.66;58.56;96490.91;10483432;28;20457;-32
2023/06/05 17:31:15;;;;;;;0.77;0.60;;;;;;;19.56;58.12;96477.41;10492098;28;20037;-32
2023/06/05 17:36:15;;;;;;;0.80;0.80;;;;;;;19.47;58.63;96481.72;10487905;28;20024;-32
2023/06/05 17:41:16;;;;;;;1.20;0.83;;;;;;;19.42;58.47;96488.53;10484320;28;20466;-33
2023/06/05 17:46:16;;;;;;;0.95;0.85;;;;;;;19.41;58.39;96482.63;10491433;28;20025;-32
2023/06/05 17:51:17;;;;;;;0.80;0.80;;;;;;;19.38;58.07;96485.19;10490192;28;20029;-32
2023/06/05 17:56:17;;;;;;;0.80;0.80;;;;;;;19.37;58.05;96485.19;10483289;28;20056;-33
2023/06/05 18:01:18;;;;;;;1.27;0.93;;;;;;;19.37;57.87;96482.66;10491257;28;20090;-33
2023/06/05 18:06:19;;;;;;;0.73;0.70;;;;;;;19.36;58.14;96488.59;10484176;28;20384;-33
2023/06/05 18:11:23;;;;;;;0.90;0.90;;;;;;;19.36;57.99;96483.50;10491029;28;20032;-33
2023/06/05 18:16:23;;;;;;;0.85;0.85;;;;;;;19.42;60.21;96488.53;10486963;28;20495;-32
2023/06/05 18:21:24;;;;;;;0.70;0.60;;;;;;;19.62;58.53;96491.75;10490583;28;20032;-34
2023/06/05 18:26:25;;;;;;;0.70;0.70;;;;;;;19.63;58.10;96498.53;10487343;28;20032;-34
2023/06/05 18:31:25;;;;;;;0.68;0.68;;;;;;;19.50;58.48;96490.16;10496227;28;20123;-33
2023/06/05 18:36:26;;;;;;;0.53;0.53;;;;;;;19.45;58.39;96493.59;10498564;28;20135;-33
2023/06/05 18:41:29;;;;;;;0.95;0.85;;;;;;;19.41;58.44;96494.47;10496948;28;20032;-33
2023/06/05 18:46:29;;;;;;;0.73;0.73;;;;;;;19.39;58.23;96493.63;10506187;28;20036;-34
2023/06/05 18:51:30;;;;;;;1.13;0.90;;;;;;;19.37;58.32;96487.72;10492045;28;20036;-32
2023/06/05 18:56:30;;;;;;;1.23;0.98;;;;;;;19.36;57.95;96483.50;10499981;28;20707;-33
2023/06/05 19:01:30;;;;;;;1.05;0.95;;;;;;;19.35;58.12;96484.34;10497341;28;20037;-34
2023/06/05 19:06:31;;;;;;;1.20;1.10;;;;;;;19.32;58.06;96484.38;10490466;28;20110;-32
2023/06/05 19:11:33;;;;;;;0.57;0.57;;;;;;;19.33;58.64;96493.69;10496684;28;20037;-33
2023/06/05 19:16:34;;;;;;;0.80;0.80;;;;;;;19.57;58.59;96503.63;10495914;28;20036;-32
2023/06/05 19:21:34;;;;;;;0.60;0.60;;;;;;;19.66;57.72;96499.34;10505018;28;20402;-32
2023/06/05 19:26:35;;;;;;;0.68;0.60;;;;;;;19.53;58.35;96502.00;10494605;28;20032;-34
2023/06/05 19:31:38;;;;;;;0.60;0.57;;;;;;;19.46;58.42;96507.97;10496055;28;20482;-34
2023/06/05 19:36:39;;;;;;;0.85;0.80;;;;;;;19.42;58.06;96506.31;10491291;28;20283;-32
2023/06/05 19:41:39;;;;;;;1.40;0.93;;;;;;;19.40;57.87;96515.63;10487661;28;20390;-33
2023/06/05 19:46:40;;;;;;;1.15;0.95;;;;;;;19.37;58.02;96526.66;10495494;28;20305;-34
2023/06/05 19:51:42;;;;;;;0.73;0.70;;;;;;;19.38;57.86;96532.56;10494472;28;20043;-32
2023/06/05 19:56:43;;;;;;;0.80;0.80;;;;;;;19.37;57.95;96535.97;10495328;28;20283;-32
2023/06/05 20:01:43;;;;;;;0.70;0.70;;;;;;;19.36;57.87;96536.81;10489594;28;20474;-34
2023/06/05 20:06:44;;;;;;;0.90;0.83;;;;;;;19.35;58.03;96535.97;10494270;28;20033;-33
2023/06/05 20:11:44;;;;;;;1.73;0.80;;;;;;;19.51;59.07;96549.41;10494091;28;20032;-33
2023/06/05 20:16:45;;;;;;;0.70;0.70;;;;;;;19.66;58.14;96544.22;10491362;28;20332;-34
2023/06/05 20:21:45;;;;;;;1.13;0.90;;;;;;;19.54;58.61;96547.69;10489843;28;20050;-33
2023/06/05 20:26:45;;;;;;;0.80;0.80;;;;;;;19.46;58.36;96551.13;10492970;28;20082;-33
2023/06/05 20:31:46;;;;;;;0.70;0.70;;;;;;;19.43;58.32;96556.25;10494055;28;20047;-32
2023/06/05 20:36:46;;;;;;;0.60;0.60;;;;;;;19.37;58.32;96556.28;10488717;28;20040;-32
2023/06/05 20:41:52;;;;;;;0.85;0.85;;;;;;;19.37;58.23;96541.03;10493702;28;20479;-33
2023/06/05 20:46:52;;;;;;;0.80;0.80;;;;;;;19.37;57.74;96551.19;10485981;28;20044;-33
2023/06/05 20:51:53;;;;;;;0.88;0.80;;;;;;;19.36;57.80;96555.44;10492046;28;20032;-32
2023/06/05 20:56:54;;;;;;;0.80;0.80;;;;;;;19.36;57.79;96557.97;10491362;28;20485;-33
2023/06/05 21:01:57;;;;;;;1.33;1.23;;;;;;;19.35;57.75;96553.72;10492512;28;20040;-32
2023/06/05 21:06:57;;;;;;;0.60;0.60;;;;;;;19.51;58.95;96559.56;10486566;28;20082;-33
2023/06/05 21:11:58;;;;;;;0.50;0.50;;;;;;;19.63;58.01;96552.72;10490496;28;20491;-32
2023/06/05 21:16:58;;;;;;;0.60;0.60;;;;;;;19.55;58.22;96557.00;10492328;28;20487;-32
2023/06/05 21:21:59;;;;;;;0.70;0.70;;;;;;;19.47;58.39;96552.81;10490790;28;20040;-34
2023/06/05 21:27:00;;;;;;;0.70;0.70;;;;;;;19.42;58.17;96546.94;10491797;28;20502;-33
2023/06/05 21:32:00;;;;;;;0.50;0.50;;;;;;;19.40;57.97;96551.16;10491210;28;20025;-33
2023/06/05 21:37:01;;;;;;;0.70;0.70;;;;;;;19.38;57.81;96547.78;10487186;28;20028;-34
2023/06/05 21:42:02;;;;;;;0.73;0.70;;;;;;;19.37;57.37;96551.19;10492122;28;20052;-33
2023/06/05 21:47:02;;;;;;;1.95;0.73;;;;;;;19.37;57.84;96556.28;10489546;28;20409;-32
2023/06/05 21:52:04;;;;;;;0.80;0.70;;;;;;;19.36;58.05;96555.44;10491247;28;20039;-34
2023/06/05 21:57:05;;;;;;;1.10;1.00;;;;;;;19.37;57.84;96551.19;10488327;28;20032;-32
2023/06/05 22:02:06;;;;;;;0.60;0.60;;;;;;;19.48;59.28;96555.34;10492770;28;20025;-32
2023/06/05 22:07:07;;;;;;;0.50;0.45;;;;;;;19.64;58.19;96566.25;10498373;28;20028;-33
2023/06/05 22:12:11;;;;;;;0.70;0.70;;;;;;;19.61;58.35;96561.19;10499292;28;20020;-33
2023/06/05 22:17:12;;;;;;;0.70;0.70;;;;;;;19.46;58.38;96548.59;10491989;28;20032;-33
2023/06/05 22:22:13;;;;;;;1.00;0.70;;;;;;;19.44;58.11;96552.84;10496756;28;20039;-33
2023/06/05 22:27:13;;;;;;;0.70;0.60;;;;;;;19.41;57.80;96553.69;10497750;28;20029;-33
2023/06/05 22:32:14;;;;;;;1.77;0.50;;;;;;;19.38;57.82;96563.03;10493015;28;20032;-32
2023/06/05 22:37:14;;;;;;;0.82;0.82;;;;;;;19.40;57.89;96571.47;10498222;28;20047;-33
2023/06/05 22:42:15;;;;;;;0.93;0.90;;;;;;;19.38;57.71;96563.03;10490649;28;20490;-33
2023/06/05 22:47:16;;;;;;;1.00;1.00;;;;;;;19.36;57.69;96565.59;10498021;28;20105;-32
2023/06/05 22:52:17;;;;;;;0.75;0.75;;;;;;;19.36;57.33;96552.03;10496490;28;20286;-33
2023/06/05 22:57:17;;;;;;;0.83;0.83;;;;;;;19.40;59.72;96558.78;10497534;28;20029;-33
2023/06/05 23:02:17;;;;;;;0.60;0.60;;;;;;;19.59;58.36;96560.38;10496022;28;20085;-33
2023/06/05 23:07:18;;;;;;;1.10;0.70;;;;;;;19.65;58.08;96552.69;10490679;28;20040;-32
2023/06/05 23:12:18;;;;;;;0.80;0.60;;;;;;;19.52;58.24;96561.25;10496432;28;20031;-32
2023/06/05 23:17:19;;;;;;;0.52;0.52;;;;;;;19.45;58.08;96560.47;10487025;28;20286;-32
2023/06/05 23:22:19;;;;;;;0.77;0.77;;;;;;;19.41;58.00;96561.31;10497315;28;20034;-32